createdAt,value
2017-08-23T00:01:20.736Z,82.97
2017-08-23T00:03:49.142Z,83.48
2017-08-23T00:06:17.515Z,82.71
2017-08-23T00:08:45.861Z,83.26
2017-08-23T00:11:14.209Z,83.13
2017-08-23T00:13:42.532Z,83.44
2017-08-23T00:16:11.188Z,83.77
2017-08-23T00:18:39.509Z,83.57
2017-08-23T00:21:07.824Z,83.73
2017-08-23T00:23:36.157Z,83.46
2017-08-23T00:26:04.476Z,82.79
2017-08-23T00:28:32.826Z,82.90
2017-08-23T00:31:01.327Z,82.69
2017-08-23T00:33:29.671Z,82.58
2017-08-23T00:35:57.983Z,82.58
2017-08-23T00:38:26.814Z,82.97
2017-08-23T00:40:55.135Z,83.30
2017-08-23T00:43:23.450Z,83.15
2017-08-23T00:45:51.789Z,82.62
2017-08-23T00:48:20.130Z,82.27
2017-08-23T00:50:48.487Z,82.95
2017-08-23T00:53:16.835Z,82.72
2017-08-23T00:55:45.294Z,83.52
2017-08-23T00:58:13.641Z,83.09
2017-08-23T01:00:42.260Z,82.78
2017-08-23T01:03:10.579Z,83.63
2017-08-23T01:05:38.918Z,82.84
2017-08-23T01:08:07.265Z,83.09
2017-08-23T01:10:35.610Z,83.53
2017-08-23T01:13:03.973Z,83.40
2017-08-23T01:15:32.302Z,83.77
2017-08-23T01:18:00.657Z,84.08
2017-08-23T01:20:28.989Z,84.13
2017-08-23T01:22:57.331Z,84.08
2017-08-23T01:25:25.651Z,83.24
2017-08-23T01:27:54.241Z,83.46
2017-08-23T01:30:22.560Z,83.98
2017-08-23T01:32:50.890Z,84.31
2017-08-23T01:35:19.243Z,84.20
2017-08-23T01:37:47.578Z,84.46
2017-08-23T01:40:15.950Z,83.72
2017-08-23T01:42:44.273Z,83.33
2017-08-23T01:45:12.623Z,83.16
2017-08-23T01:47:40.959Z,84.01
2017-08-23T01:50:09.307Z,84.33
2017-08-23T01:52:37.625Z,84.52
2017-08-23T01:55:05.958Z,84.83
2017-08-23T01:57:34.288Z,84.60
2017-08-23T02:00:02.659Z,84.33
2017-08-23T02:02:31.017Z,84.59
2017-08-23T02:04:59.837Z,84.66
2017-08-23T02:07:28.241Z,84.95
2017-08-23T02:09:56.593Z,85.07
2017-08-23T02:12:24.983Z,84.90
2017-08-23T02:14:53.344Z,84.29
2017-08-23T02:17:21.685Z,83.76
2017-08-23T02:19:49.995Z,84.37
2017-08-23T02:22:18.354Z,84.90
2017-08-23T02:24:46.695Z,85.58
2017-08-23T02:27:15.077Z,85.15
2017-08-23T02:29:43.658Z,84.52
2017-08-23T02:32:11.992Z,84.43
2017-08-23T02:34:40.356Z,84.90
2017-08-23T02:37:08.677Z,85.31
2017-08-23T02:39:37.027Z,85.52
2017-08-23T02:42:05.378Z,84.94
2017-08-23T02:44:33.800Z,84.92
2017-08-23T02:47:02.334Z,85.55
2017-08-23T02:49:30.665Z,85.52
2017-08-23T02:51:59.007Z,85.55
2017-08-23T02:54:27.368Z,85.10
2017-08-23T02:56:55.736Z,85.55
2017-08-23T02:59:24.089Z,85.27
2017-08-23T03:01:53.172Z,85.98
2017-08-23T03:04:21.534Z,85.40
2017-08-23T03:06:49.892Z,84.84
2017-08-23T03:09:18.213Z,84.31
2017-08-23T03:11:46.570Z,84.26
2017-08-23T03:14:14.906Z,83.97
2017-08-23T03:16:43.247Z,84.24
2017-08-23T03:19:11.582Z,84.68
2017-08-23T03:21:40.190Z,84.46
2017-08-23T03:24:08.531Z,84.26
2017-08-23T03:26:36.866Z,84.04
2017-08-23T03:29:05.288Z,84.49
2017-08-23T03:31:33.614Z,84.39
2017-08-23T03:34:01.963Z,84.23
2017-08-23T03:36:30.296Z,84.29
2017-08-23T03:38:59.190Z,84.25
2017-08-23T03:41:27.514Z,84.09
2017-08-23T03:43:55.915Z,84.51
2017-08-23T03:46:24.267Z,84.28
2017-08-23T03:48:52.597Z,84.04
2017-08-23T03:51:21.003Z,84.56
2017-08-23T03:53:50.083Z,84.37
2017-08-23T03:56:18.442Z,84.51
2017-08-23T03:58:46.799Z,84.20
2017-08-23T04:01:15.137Z,84.59
2017-08-23T04:03:43.485Z,84.42
2017-08-23T04:06:11.825Z,84.70
2017-08-23T04:08:40.195Z,84.62
2017-08-23T04:11:08.511Z,84.53
2017-08-23T04:13:36.857Z,84.62
2017-08-23T04:16:05.198Z,84.49
2017-08-23T04:18:33.528Z,84.51
2017-08-23T04:21:01.892Z,84.65
2017-08-23T04:23:30.212Z,84.79
2017-08-23T04:25:58.619Z,85.37
2017-08-23T04:28:26.935Z,84.99
2017-08-23T04:30:55.549Z,84.61
2017-08-23T04:33:23.866Z,85.23
2017-08-23T04:35:52.201Z,85.76
2017-08-23T04:38:20.543Z,85.58
2017-08-23T04:40:48.902Z,85.74
2017-08-23T04:43:17.236Z,85.08
2017-08-23T04:45:45.567Z,84.93
2017-08-23T04:48:14.416Z,85.78
2017-08-23T04:50:42.761Z,85.36
2017-08-23T04:53:11.155Z,85.02
2017-08-23T04:55:39.514Z,85.09
2017-08-23T04:58:07.840Z,85.49
2017-08-23T05:00:36.249Z,86.42
2017-08-23T05:03:04.580Z,86.04
2017-08-23T05:05:32.937Z,86.34
2017-08-23T05:08:01.274Z,86.92
2017-08-23T05:10:29.634Z,86.64
2017-08-23T05:12:58.028Z,86.28
2017-08-23T05:15:26.354Z,86.81
2017-08-23T05:17:54.686Z,87.43
2017-08-23T05:20:23.011Z,87.44
2017-08-23T05:22:51.370Z,87.13
2017-08-23T05:25:19.709Z,86.53
2017-08-23T05:27:48.092Z,86.66
2017-08-23T05:30:16.436Z,86.73
2017-08-23T05:32:44.779Z,87.31
2017-08-23T05:35:13.133Z,87.30
2017-08-23T05:37:41.454Z,87.48
2017-08-23T05:40:09.786Z,87.23
2017-08-23T05:42:38.130Z,87.09
2017-08-23T05:45:06.463Z,86.93
2017-08-23T05:47:34.827Z,87.18
2017-08-23T05:50:03.167Z,87.22
2017-08-23T05:52:31.513Z,87.12
2017-08-23T05:54:59.908Z,87.17
2017-08-23T05:57:28.766Z,87.26
2017-08-23T05:59:57.110Z,86.71
2017-08-23T06:02:25.442Z,86.55
2017-08-23T06:04:53.801Z,86.70
2017-08-23T06:07:22.876Z,86.40
2017-08-23T06:09:51.223Z,86.64
2017-08-23T06:12:19.562Z,86.25
2017-08-23T06:14:48.384Z,86.29
2017-08-23T06:17:16.717Z,86.37
2017-08-23T06:19:45.058Z,85.55
2017-08-23T06:22:13.421Z,85.77
2017-08-23T06:24:41.762Z,85.62
2017-08-23T06:27:10.125Z,85.55
2017-08-23T06:29:38.445Z,85.25
2017-08-23T06:32:07.328Z,84.75
2017-08-23T06:34:35.644Z,84.42
2017-08-23T06:37:03.955Z,84.48
2017-08-23T06:39:32.301Z,84.51
2017-08-23T06:42:00.644Z,84.18
2017-08-23T06:44:29.010Z,84.01
2017-08-23T06:46:57.354Z,84.38
2017-08-23T06:49:25.721Z,83.90
2017-08-23T06:51:54.042Z,83.31
2017-08-23T06:54:22.383Z,82.93
2017-08-23T06:56:50.733Z,82.19
2017-08-23T06:59:19.056Z,81.52
2017-08-23T07:01:47.419Z,81.49
2017-08-23T07:04:15.748Z,81.78
2017-08-23T07:06:44.105Z,81.44
2017-08-23T07:09:12.424Z,81.00
2017-08-23T07:11:40.771Z,80.06
2017-08-23T07:14:09.128Z,79.96
2017-08-23T07:16:37.461Z,79.42
2017-08-23T07:19:05.816Z,78.93
2017-08-23T07:21:34.150Z,78.71
2017-08-23T07:24:02.972Z,78.68
2017-08-23T07:26:31.308Z,78.77
2017-08-23T07:28:59.660Z,78.38
2017-08-23T07:31:28.732Z,78.07
2017-08-23T07:33:57.129Z,77.86
2017-08-23T07:36:25.471Z,77.64
2017-08-23T07:38:53.793Z,77.38
2017-08-23T07:41:22.168Z,77.60
2017-08-23T07:43:50.502Z,76.66
2017-08-23T07:46:18.858Z,76.22
2017-08-23T07:48:47.213Z,76.03
2017-08-23T07:51:15.526Z,76.75
2017-08-23T07:53:43.880Z,76.72
2017-08-23T07:56:12.208Z,76.98
2017-08-23T07:58:40.595Z,76.25
2017-08-23T08:01:08.948Z,76.25
2017-08-23T08:03:37.310Z,76.23
2017-08-23T08:06:05.651Z,76.20
2017-08-23T08:08:34.342Z,76.32
2017-08-23T08:11:02.678Z,76.17
2017-08-23T08:13:30.997Z,74.50
2017-08-23T08:15:59.349Z,73.30
2017-08-23T08:18:27.683Z,72.98
2017-08-23T08:20:56.024Z,72.71
2017-08-23T08:23:24.373Z,72.60
2017-08-23T08:25:52.713Z,73.01
2017-08-23T08:28:21.071Z,73.67
2017-08-23T08:30:49.408Z,73.00
2017-08-23T08:33:18.254Z,73.47
2017-08-23T08:35:46.591Z,72.64
2017-08-23T08:38:14.916Z,72.31
2017-08-23T08:40:43.256Z,72.86
2017-08-23T08:43:11.591Z,69.91
2017-08-23T08:45:39.951Z,70.05
2017-08-23T08:48:08.954Z,70.06
2017-08-23T08:50:37.541Z,69.55
2017-08-23T08:53:05.895Z,68.41
2017-08-23T08:55:34.234Z,69.00
2017-08-23T08:58:02.573Z,68.22
2017-08-23T09:00:30.893Z,68.95
2017-08-23T09:02:59.258Z,68.92
2017-08-23T09:05:27.581Z,67.72
2017-08-23T09:07:56.177Z,68.03
2017-08-23T09:10:24.503Z,68.64
2017-08-23T09:12:52.842Z,68.48
2017-08-23T09:15:21.190Z,69.14
2017-08-23T09:17:49.525Z,68.52
2017-08-23T09:20:17.870Z,68.02
2017-08-23T09:22:46.203Z,67.73
2017-08-23T09:25:14.559Z,66.80
2017-08-23T09:27:42.891Z,66.78
2017-08-23T09:30:11.237Z,68.15
2017-08-23T09:32:39.612Z,67.20
2017-08-23T09:35:07.929Z,67.27
2017-08-23T09:37:36.277Z,67.46
2017-08-23T09:40:04.606Z,67.61
2017-08-23T09:42:32.955Z,66.81
2017-08-23T09:45:01.289Z,66.86
2017-08-23T09:47:29.644Z,67.62
2017-08-23T09:49:58.004Z,66.12
2017-08-23T09:52:26.349Z,65.77
2017-08-23T09:54:54.706Z,65.64
2017-08-23T09:57:23.043Z,65.58
2017-08-23T09:59:51.400Z,65.62
2017-08-23T10:02:19.722Z,64.46
2017-08-23T10:04:48.065Z,64.55
2017-08-23T10:07:17.346Z,64.49
2017-08-23T10:09:45.665Z,64.61
2017-08-23T10:12:14.009Z,64.71
2017-08-23T10:14:42.338Z,64.26
2017-08-23T10:17:10.703Z,64.16
2017-08-23T10:19:39.029Z,64.72
2017-08-23T10:22:07.367Z,65.48
2017-08-23T10:24:35.709Z,64.85
2017-08-23T10:27:04.036Z,64.26
2017-08-23T10:29:32.541Z,63.42
2017-08-23T10:32:00.878Z,63.61
2017-08-23T10:34:29.242Z,63.31
2017-08-23T10:36:57.599Z,62.97
2017-08-23T10:39:25.961Z,62.59
2017-08-23T10:41:54.300Z,61.96
2017-08-23T10:44:22.615Z,62.86
2017-08-23T10:46:50.971Z,63.38
2017-08-23T10:49:19.311Z,61.80
2017-08-23T10:51:47.665Z,62.50
2017-08-23T10:54:16.011Z,62.57
2017-08-23T10:56:44.345Z,62.51
2017-08-23T10:59:12.683Z,61.69
2017-08-23T11:01:41.035Z,61.84
2017-08-23T11:04:09.385Z,62.67
2017-08-23T11:06:37.721Z,61.19
2017-08-23T11:09:06.088Z,60.66
2017-08-23T11:11:34.422Z,60.89
2017-08-23T11:14:02.834Z,60.36
2017-08-23T11:16:31.209Z,60.21
2017-08-23T11:18:59.532Z,60.67
2017-08-23T11:21:27.859Z,61.51
2017-08-23T11:23:56.195Z,60.01
2017-08-23T11:26:24.813Z,61.18
2017-08-23T11:28:53.148Z,60.61
2017-08-23T11:31:21.464Z,60.54
2017-08-23T11:33:49.804Z,60.69
2017-08-23T11:36:18.133Z,61.05
2017-08-23T11:38:46.489Z,61.77
2017-08-23T11:41:14.816Z,59.83
2017-08-23T11:43:43.169Z,59.24
2017-08-23T11:46:12.212Z,59.31
2017-08-23T11:48:40.589Z,59.79
2017-08-23T11:51:08.936Z,60.28
2017-08-23T11:53:37.281Z,59.61
2017-08-23T11:56:05.638Z,60.35
2017-08-23T11:58:33.966Z,60.27
2017-08-23T12:01:02.792Z,60.14
2017-08-23T12:03:31.108Z,59.56
2017-08-23T12:05:59.418Z,56.52
2017-08-23T12:08:27.766Z,57.39
2017-08-23T12:10:56.108Z,56.91
2017-08-23T12:13:25.135Z,56.30
2017-08-23T12:15:53.454Z,56.31
2017-08-23T12:18:21.807Z,56.51
2017-08-23T12:20:50.130Z,57.17
2017-08-23T12:23:18.474Z,56.11
2017-08-23T12:25:46.820Z,56.30
2017-08-23T12:28:15.144Z,56.45
2017-08-23T12:30:43.492Z,55.48
2017-08-23T12:33:11.833Z,54.51
2017-08-23T12:35:40.576Z,52.12
2017-08-23T12:38:08.899Z,51.99
2017-08-23T12:40:37.229Z,51.74
2017-08-23T12:43:05.573Z,50.33
2017-08-23T12:45:33.918Z,51.22
2017-08-23T12:48:02.269Z,51.95
2017-08-23T12:50:30.604Z,53.31
2017-08-23T12:52:58.967Z,52.25
2017-08-23T12:55:27.292Z,50.99
2017-08-23T12:57:55.662Z,52.07
2017-08-23T13:00:24.031Z,51.21
2017-08-23T13:02:52.377Z,52.11
2017-08-23T13:05:20.740Z,52.44
2017-08-23T13:07:49.092Z,51.91
2017-08-23T13:10:17.745Z,51.49
2017-08-23T13:12:46.080Z,52.07
2017-08-23T13:15:14.399Z,53.28
2017-08-23T13:17:42.735Z,53.63
2017-08-23T13:20:11.062Z,53.07
2017-08-23T13:22:39.422Z,52.97
2017-08-23T13:25:07.751Z,53.11
2017-08-23T13:27:36.361Z,52.30
2017-08-23T13:30:04.774Z,53.25
2017-08-23T13:32:33.108Z,53.51
2017-08-23T13:35:01.473Z,53.48
2017-08-23T13:37:29.804Z,52.84
2017-08-23T13:39:58.527Z,50.90
2017-08-23T13:42:27.561Z,49.84
2017-08-23T13:44:55.921Z,48.58
2017-08-23T13:47:24.254Z,49.09
2017-08-23T13:49:52.608Z,48.62
2017-08-23T13:52:20.970Z,47.94
2017-08-23T13:54:49.556Z,48.81
2017-08-23T13:57:17.927Z,49.64
2017-08-23T13:59:46.249Z,48.79
2017-08-23T14:02:14.593Z,48.01
2017-08-23T14:04:43.202Z,46.82
2017-08-23T14:07:12.025Z,47.82
2017-08-23T14:09:40.338Z,49.52
2017-08-23T14:12:08.687Z,49.04
2017-08-23T14:14:37.045Z,48.16
2017-08-23T14:17:05.386Z,46.51
2017-08-23T14:19:33.741Z,45.54
2017-08-23T14:22:02.055Z,46.28
2017-08-23T14:24:30.780Z,45.91
2017-08-23T14:26:59.144Z,44.76
2017-08-23T14:29:27.480Z,43.13
2017-08-23T14:31:55.816Z,43.15
2017-08-23T14:34:24.140Z,42.79
2017-08-23T14:36:52.491Z,42.29
2017-08-23T14:39:20.964Z,43.78
2017-08-23T14:41:49.331Z,43.19
2017-08-23T14:44:17.685Z,42.31
2017-08-23T14:46:46.047Z,42.84
2017-08-23T14:49:14.409Z,41.72
2017-08-23T14:51:42.745Z,43.15
2017-08-23T14:54:11.092Z,43.61
2017-08-23T14:56:39.418Z,41.55
2017-08-23T14:59:07.764Z,41.90
2017-08-23T15:01:36.122Z,40.64
2017-08-23T15:04:04.474Z,41.11
2017-08-23T15:06:32.824Z,41.42
2017-08-23T15:09:01.150Z,40.29
2017-08-23T15:11:29.493Z,41.74
2017-08-23T15:13:57.844Z,42.08
2017-08-23T15:16:26.673Z,42.13
2017-08-23T15:18:54.992Z,40.27
2017-08-23T15:21:23.318Z,39.94
2017-08-23T15:23:51.658Z,40.75
2017-08-23T15:26:19.977Z,41.45
2017-08-23T15:28:48.317Z,39.63
2017-08-23T15:31:16.650Z,40.43
2017-08-23T15:33:45.357Z,38.82
2017-08-23T15:36:13.689Z,40.08
2017-08-23T15:38:42.021Z,40.67
2017-08-23T15:41:10.369Z,41.06
2017-08-23T15:43:38.737Z,42.00
2017-08-23T15:46:07.093Z,42.16
2017-08-23T15:48:35.432Z,42.82
2017-08-23T15:51:03.777Z,42.34
2017-08-23T15:53:32.113Z,42.94
2017-08-23T15:56:00.967Z,44.67
2017-08-23T15:58:29.311Z,45.05
2017-08-23T16:00:57.641Z,45.51
2017-08-23T16:03:26.420Z,46.02
2017-08-23T16:05:54.794Z,47.78
2017-08-23T16:08:23.187Z,48.81
2017-08-23T16:10:51.505Z,49.10
2017-08-23T16:13:19.894Z,48.80
2017-08-23T16:15:48.255Z,49.70
2017-08-23T16:18:16.582Z,49.68
2017-08-23T16:20:44.964Z,49.93
2017-08-23T16:23:13.302Z,50.24
2017-08-23T16:25:41.661Z,50.41
2017-08-23T16:28:09.983Z,51.85
2017-08-23T16:30:38.346Z,52.39
2017-08-23T16:33:06.720Z,52.15
2017-08-23T16:35:35.870Z,52.71
2017-08-23T16:38:04.209Z,53.52
2017-08-23T16:40:32.544Z,52.82
2017-08-23T16:43:00.893Z,53.49
2017-08-23T16:45:29.237Z,55.45
2017-08-23T16:47:57.589Z,55.65
2017-08-23T16:50:25.929Z,56.01
2017-08-23T16:52:54.267Z,55.94
2017-08-23T16:55:22.621Z,54.90
2017-08-23T16:57:51.364Z,54.93
2017-08-23T17:00:19.723Z,54.58
2017-08-23T17:02:48.077Z,55.43
2017-08-23T17:05:17.027Z,55.45
2017-08-23T17:07:45.371Z,56.05
2017-08-23T17:10:13.697Z,56.09
2017-08-23T17:12:42.054Z,56.70
2017-08-23T17:15:10.396Z,57.00
2017-08-23T17:17:38.770Z,57.36
2017-08-23T17:20:07.093Z,57.77
2017-08-23T17:22:35.892Z,58.13
2017-08-23T17:25:04.277Z,58.72
2017-08-23T17:27:32.620Z,59.41
2017-08-23T17:30:01.081Z,59.23
2017-08-23T17:32:29.422Z,59.74
2017-08-23T17:34:57.790Z,60.08
2017-08-23T17:37:26.110Z,60.27
2017-08-23T17:39:54.456Z,60.06
2017-08-23T17:42:24.171Z,59.93
2017-08-23T17:44:53.954Z,60.03
2017-08-23T17:47:22.344Z,60.64
2017-08-23T17:49:50.682Z,61.05
2017-08-23T17:52:19.033Z,61.61
2017-08-23T17:54:47.388Z,61.24
2017-08-23T17:57:15.738Z,61.25
2017-08-23T17:59:44.673Z,62.36
2017-08-23T18:02:13.008Z,62.26
2017-08-23T18:04:41.354Z,63.29
2017-08-23T18:07:12.489Z,63.99
2017-08-23T18:09:40.843Z,64.88
2017-08-23T18:12:09.202Z,65.42
2017-08-23T18:14:38.643Z,65.88
2017-08-23T18:17:07.018Z,66.22
2017-08-23T18:19:35.358Z,66.50
2017-08-23T18:22:03.719Z,66.84
2017-08-23T18:24:32.064Z,67.17
2017-08-23T18:27:00.394Z,67.79
2017-08-23T18:29:29.133Z,67.93
2017-08-23T18:31:57.507Z,68.33
2017-08-23T18:34:25.842Z,69.04
2017-08-23T18:36:54.213Z,69.33
2017-08-23T18:39:22.574Z,69.87
2017-08-23T18:41:50.962Z,69.97
2017-08-23T18:44:19.303Z,70.22
2017-08-23T18:46:47.650Z,70.53
2017-08-23T18:49:16.017Z,70.84
2017-08-23T18:51:44.380Z,70.87
2017-08-23T18:54:13.026Z,71.24
2017-08-23T18:56:41.383Z,71.54
2017-08-23T18:59:09.722Z,71.56
2017-08-23T19:01:38.061Z,71.08
2017-08-23T19:04:06.407Z,71.82
2017-08-23T19:06:34.734Z,72.13
2017-08-23T19:09:03.098Z,72.11
2017-08-23T19:11:31.430Z,72.70
2017-08-23T19:13:59.794Z,72.96
2017-08-23T19:16:28.152Z,72.96
2017-08-23T19:18:56.480Z,73.23
2017-08-23T19:21:25.204Z,73.31
2017-08-23T19:23:53.591Z,73.37
2017-08-23T19:26:21.951Z,73.78
2017-08-23T19:28:50.313Z,74.20
2017-08-23T19:31:18.678Z,74.60
2017-08-23T19:33:47.051Z,74.35
2017-08-23T19:36:15.413Z,74.78
2017-08-23T19:38:43.791Z,75.32
2017-08-23T19:41:12.145Z,75.35
2017-08-23T19:43:40.497Z,75.43
2017-08-23T19:46:08.882Z,75.69
2017-08-23T19:48:37.283Z,76.31
2017-08-23T19:51:05.639Z,76.42
2017-08-23T19:53:34.005Z,77.00
2017-08-23T19:56:02.402Z,77.06
2017-08-23T19:58:30.805Z,77.20
2017-08-23T20:00:59.197Z,77.47
2017-08-23T20:03:27.568Z,77.06
2017-08-23T20:05:55.909Z,77.25
2017-08-23T20:08:25.037Z,77.73
2017-08-23T20:10:53.491Z,78.29
2017-08-23T20:13:21.824Z,78.45
2017-08-23T20:15:50.182Z,78.73
2017-08-23T20:18:18.541Z,78.19
2017-08-23T20:20:46.903Z,79.02
2017-08-23T20:23:15.245Z,78.79
2017-08-23T20:25:43.577Z,78.92
2017-08-23T20:28:11.926Z,79.32
2017-08-23T20:30:40.686Z,79.47
2017-08-23T20:33:09.060Z,79.91
2017-08-23T20:35:37.402Z,79.95
2017-08-23T20:38:06.211Z,79.94
2017-08-23T20:40:34.540Z,80.07
2017-08-23T20:43:02.874Z,79.86
2017-08-23T20:45:31.995Z,79.80
2017-08-23T20:48:00.334Z,80.38
2017-08-23T20:50:28.696Z,80.71
2017-08-23T20:52:57.032Z,81.08
2017-08-23T20:55:25.793Z,81.09
2017-08-23T20:57:54.140Z,81.01
2017-08-23T21:00:22.481Z,81.45
2017-08-23T21:02:50.847Z,81.15
2017-08-23T21:05:19.182Z,80.72
2017-08-23T21:07:47.539Z,80.72
2017-08-23T21:10:16.785Z,81.25
2017-08-23T21:12:45.395Z,81.44
2017-08-23T21:15:13.723Z,81.13
2017-08-23T21:17:42.040Z,81.61
2017-08-23T21:20:10.401Z,81.54
2017-08-23T21:22:38.728Z,82.00
2017-08-23T21:25:07.075Z,81.91
2017-08-23T21:27:35.424Z,81.82
2017-08-23T21:30:04.982Z,81.98
2017-08-23T21:32:33.812Z,81.82
2017-08-23T21:35:02.695Z,81.83
2017-08-23T21:37:31.587Z,82.15
2017-08-23T21:40:00.357Z,81.76
2017-08-23T21:42:29.655Z,81.85
2017-08-23T21:44:58.681Z,82.04
2017-08-23T21:47:27.924Z,82.75
2017-08-23T21:49:56.286Z,82.76
2017-08-23T21:52:25.089Z,82.90
2017-08-23T21:54:53.670Z,82.85
2017-08-23T21:57:22.006Z,82.86
2017-08-23T21:59:50.346Z,82.87
2017-08-23T22:02:18.675Z,82.92
2017-08-23T22:04:47.506Z,82.44
2017-08-23T22:07:15.847Z,82.86
2017-08-23T22:09:44.195Z,82.72
2017-08-23T22:12:12.543Z,82.47
2017-08-23T22:14:40.875Z,82.71
2017-08-23T22:17:12.388Z,82.93
2017-08-23T22:19:40.702Z,82.82
2017-08-23T22:22:09.840Z,82.65
2017-08-23T22:24:38.160Z,83.32
2017-08-23T22:27:06.476Z,83.42
2017-08-23T22:29:34.820Z,83.57
2017-08-23T22:32:03.576Z,83.74
2017-08-23T22:34:32.692Z,83.62
2017-08-23T22:37:01.029Z,83.83
2017-08-23T22:39:29.376Z,83.20
2017-08-23T22:41:57.725Z,83.42
2017-08-23T22:44:26.055Z,83.21
2017-08-23T22:46:54.399Z,83.11
2017-08-23T22:49:22.739Z,83.86
2017-08-23T22:51:51.114Z,83.56
2017-08-23T22:54:19.460Z,83.34
2017-08-23T22:56:47.807Z,83.52
2017-08-23T22:59:16.168Z,84.16
2017-08-23T23:01:44.508Z,84.00
2017-08-23T23:04:12.871Z,84.47
2017-08-23T23:06:41.219Z,84.07
2017-08-23T23:09:09.580Z,84.03
2017-08-23T23:11:37.990Z,83.95
2017-08-23T23:14:06.341Z,83.84
2017-08-23T23:16:34.703Z,83.54
2017-08-23T23:19:03.050Z,84.37
2017-08-23T23:21:31.401Z,84.70
2017-08-23T23:23:59.743Z,84.39
2017-08-23T23:26:28.103Z,84.01
2017-08-23T23:28:56.430Z,84.28
2017-08-23T23:31:24.841Z,84.54
2017-08-23T23:33:53.190Z,85.35
2017-08-23T23:36:21.527Z,85.30
2017-08-23T23:38:49.866Z,84.40
2017-08-23T23:41:18.236Z,83.68
2017-08-23T23:43:46.588Z,84.14
2017-08-23T23:46:14.980Z,85.40
2017-08-23T23:48:43.372Z,85.91
2017-08-23T23:51:11.707Z,84.95
2017-08-23T23:53:40.065Z,84.69
2017-08-23T23:56:08.417Z,84.95
2017-08-23T23:58:36.771Z,85.45
